Impacts METAR Board
IDs:

KHYI - San Marcos Muni, TX, US

Updated at: 0300 UTC 18 Jan 2022
Potential Impact None Slight Moderate High
Time 17/15Z 17/16Z 17/17Z 17/18Z 17/19Z 17/20Z 17/21Z 17/22Z 17/23Z 18/00Z 18/01Z 18/02Z 18/03Z
Temp40 51 56 60 64 67 70 70 68 62 51 49 46
Dewpt25 25 25 25 26 23 20 20 20 21 19 19 21
Altim30.19 30.20 30.20 30.18 30.14 30.10 30.09 30.08 30.07 30.06 30.07 30.08 30.09
VIS
CIG-- -- -- -- -- -- -- -- -- -- -- -- --
CoverCLRCLRCLRCLRCLRCLRCLRCLRCLRCLRCLRCLRCLR
FltCat
WX--------------------------
WDir0403016025017018020018018001500
WSpd0 6 4 3 7 5 9 7 8 6 0 4 0
WGst-- -- -- -- -- -- -- -- -- -- -- -- --
Raw hourly METARs
KHYI 171456Z 00000KT CLR 04/M04 A3019 RMK AO2 SLP221 6//// T00441039 52020 PNO $
KHYI 171556Z 04006KT CLR 11/M04 A3020 RMK AO2 SLP224 T01061039 PNO $
KHYI 171656Z 03004KT CLR 13/M04 A3020 RMK AO2 SLP225 T01331039 PNO $
KHYI 171756Z 16003KT CLR 16/M04 A3018 RMK AO2 SLP217 6//// T01561039 10156 21017 58002 PNO $
KHYI 171856Z 25007KT CLR 18/M03 A3014 RMK AO2 SLP203 T01781033 PNO $
KHYI 171956Z 17005KT CLR 19/M05 A3010 RMK AO2 SLP192 T01941050 PNO $
KHYI 172056Z 18009KT CLR 21/M07 A3009 RMK AO2 SLP186 6//// T02111067 56030 PNO $
KHYI 172156Z 20007KT CLR 21/M07 A3008 RMK AO2 SLP181 T02111067 PNO $
KHYI 172256Z 18008KT CLR 20/M07 A3007 RMK AO2 SLP179 T02001067 PNO $
KHYI 172356Z 18006KT CLR 17/M06 A3006 RMK AO2 SLP178 6//// T01671061 10217 20156 56008 PNO $
KHYI 180056Z 00000KT CLR 11/M07 A3007 RMK AO2 SLP181 T01061072 PNO $
KHYI 180156Z 15004KT CLR 09/M07 A3008 RMK AO2 SLP185 T00941072 PNO $
KHYI 180256Z AUTO 00000KT CLR 08/M06 A3009 RMK AO2 SLP187 6//// T00781061 53008 PWINO PNO $